Pensacola, Oklahoma
Current Conditions -  °F | °C
As of 3:35 AM on Saturday 20 Dec 2014 (Local Time) from KGMJ Reporting Station
Haze Haze  
Wind Chill: 39°   Ceiling: 700
Heat Index: 39°   Visibility: 4mi
Dew Point: 39°   Wind: 0mph
Humidity: 100%   Direction: NA
Pressure: 30.23"   Gusts: NA
Location:  36.6347°N, 95.0928°W
Report Text: KGMJ 200935Z AUTO 00000KT 4SM BR BKN007 OVC015 04/04 A3023 RMK AO2
Loading
Personal Weather Stations






























Interactive Weather Map New forecast layout! Learn more

10-Day Weather Forecast

Advertisements
Track Severe Weather on mobile